sensor_id;sensor_type;location;lat;lon;timestamp;pressure;altitude;pressure_sealevel;temperature;humidity
33151;BME280;19508;42.578;23.416;2022-07-23T00:00:15;93992.78;;;20.73;51.97
33151;BME280;19508;42.578;23.416;2022-07-23T00:02:42;93987.72;;;20.66;50.84
33151;BME280;19508;42.578;23.416;2022-07-23T00:05:08;94002.75;;;20.69;52.51
33151;BME280;19508;42.578;23.416;2022-07-23T00:07:35;94003.72;;;20.73;52.25
33151;BME280;19508;42.578;23.416;2022-07-23T00:10:01;93992.41;;;20.66;52.88
33151;BME280;19508;42.578;23.416;2022-07-23T00:12:26;94005.09;;;20.62;53.06
33151;BME280;19508;42.578;23.416;2022-07-23T00:14:52;93992.66;;;20.55;52.50
33151;BME280;19508;42.578;23.416;2022-07-23T00:17:17;94000.81;;;20.47;52.53
33151;BME280;19508;42.578;23.416;2022-07-23T00:19:43;93997.97;;;20.38;52.57
33151;BME280;19508;42.578;23.416;2022-07-23T00:22:09;93988.66;;;20.39;51.91
33151;BME280;19508;42.578;23.416;2022-07-23T00:24:36;93988.84;;;20.43;51.67
33151;BME280;19508;42.578;23.416;2022-07-23T00:27:01;94001.59;;;20.47;51.60
33151;BME280;19508;42.578;23.416;2022-07-23T00:29:27;93991.69;;;20.51;51.14
33151;BME280;19508;42.578;23.416;2022-07-23T00:31:53;93993.47;;;20.56;51.45
33151;BME280;19508;42.578;23.416;2022-07-23T00:34:18;93998.31;;;20.59;51.83
33151;BME280;19508;42.578;23.416;2022-07-23T00:36:44;93994.16;;;20.62;52.49
33151;BME280;19508;42.578;23.416;2022-07-23T00:39:10;93992.88;;;20.68;53.02
33151;BME280;19508;42.578;23.416;2022-07-23T00:41:35;93989.19;;;20.64;52.59
33151;BME280;19508;42.578;23.416;2022-07-23T00:44:24;93982.91;;;20.63;51.00
33151;BME280;19508;42.578;23.416;2022-07-23T00:46:52;93993.53;;;20.65;50.88
33151;BME280;19508;42.578;23.416;2022-07-23T00:49:26;93985.41;;;20.51;51.02
33151;BME280;19508;42.578;23.416;2022-07-23T00:51:53;93980.97;;;20.64;50.66
33151;BME280;19508;42.578;23.416;2022-07-23T00:54:21;93994.66;;;20.64;50.74
33151;BME280;19508;42.578;23.416;2022-07-23T00:56:48;93982.22;;;20.58;50.59
33151;BME280;19508;42.578;23.416;2022-07-23T00:59:13;93986.06;;;20.56;50.48
33151;BME280;19508;42.578;23.416;2022-07-23T01:01:42;93991.41;;;20.62;50.50
33151;BME280;19508;42.578;23.416;2022-07-23T01:04:10;93992.53;;;20.61;50.72
33151;BME280;19508;42.578;23.416;2022-07-23T01:06:37;93988.94;;;20.51;51.03
33151;BME280;19508;42.578;23.416;2022-07-23T01:09:05;93990.25;;;20.54;50.69
33151;BME280;19508;42.578;23.416;2022-07-23T01:11:36;93989.28;;;20.59;50.98
33151;BME280;19508;42.578;23.416;2022-07-23T01:14:17;93991.22;;;20.58;51.04
33151;BME280;19508;42.578;23.416;2022-07-23T01:16:44;93987.19;;;20.55;50.42
33151;BME280;19508;42.578;23.416;2022-07-23T01:19:10;93995.88;;;20.58;50.94
33151;BME280;19508;42.578;23.416;2022-07-23T01:21:43;93980.59;;;20.56;51.54
33151;BME280;19508;42.578;23.416;2022-07-23T01:24:10;93983.75;;;20.50;51.01
33151;BME280;19508;42.578;23.416;2022-07-23T01:26:37;93981.97;;;20.45;51.23
33151;BME280;19508;42.578;23.416;2022-07-23T01:29:04;93988.44;;;20.49;51.78
33151;BME280;19508;42.578;23.416;2022-07-23T01:31:30;93984.78;;;20.54;51.87
33151;BME280;19508;42.578;23.416;2022-07-23T01:33:56;93980.75;;;20.51;52.24
33151;BME280;19508;42.578;23.416;2022-07-23T01:36:22;93977.31;;;20.46;51.78
33151;BME280;19508;42.578;23.416;2022-07-23T01:38:49;93974.47;;;20.51;51.45
33151;BME280;19508;42.578;23.416;2022-07-23T01:41:14;93983.59;;;20.46;51.54
33151;BME280;19508;42.578;23.416;2022-07-23T01:43:40;93978.75;;;20.43;52.15
33151;BME280;19508;42.578;23.416;2022-07-23T01:46:05;93975.47;;;20.41;52.16
33151;BME280;19508;42.578;23.416;2022-07-23T01:48:31;93978.94;;;20.47;52.78
33151;BME280;19508;42.578;23.416;2022-07-23T01:50:57;93976.59;;;20.40;52.55
33151;BME280;19508;42.578;23.416;2022-07-23T01:53:24;93973.78;;;20.32;52.94
33151;BME280;19508;42.578;23.416;2022-07-23T01:55:49;93969.66;;;20.34;52.92
33151;BME280;19508;42.578;23.416;2022-07-23T01:58:15;93972.44;;;20.43;52.70
33151;BME280;19508;42.578;23.416;2022-07-23T02:00:40;93984.22;;;20.43;52.16
33151;BME280;19508;42.578;23.416;2022-07-23T02:03:06;93981.81;;;20.28;52.12
33151;BME280;19508;42.578;23.416;2022-07-23T02:05:32;93979.56;;;20.30;52.14
33151;BME280;19508;42.578;23.416;2022-07-23T02:07:59;93983.31;;;20.34;52.65
33151;BME280;19508;42.578;23.416;2022-07-23T02:10:25;93981.94;;;20.23;53.22
33151;BME280;19508;42.578;23.416;2022-07-23T02:12:51;93987.88;;;20.25;52.73
33151;BME280;19508;42.578;23.416;2022-07-23T02:15:17;93975.34;;;20.24;52.60
33151;BME280;19508;42.578;23.416;2022-07-23T02:17:43;93984.66;;;20.23;53.04
33151;BME280;19508;42.578;23.416;2022-07-23T02:20:09;93986.91;;;20.21;53.90
33151;BME280;19508;42.578;23.416;2022-07-23T02:22:36;93991.50;;;20.12;53.84
33151;BME280;19508;42.578;23.416;2022-07-23T02:25:04;93986.72;;;20.17;54.14
33151;BME280;19508;42.578;23.416;2022-07-23T02:27:30;93991.00;;;20.10;54.65
33151;BME280;19508;42.578;23.416;2022-07-23T02:29:55;93986.94;;;20.07;54.19
33151;BME280;19508;42.578;23.416;2022-07-23T02:32:22;93994.06;;;19.94;54.39
33151;BME280;19508;42.578;23.416;2022-07-23T02:34:48;93993.84;;;20.05;54.19
33151;BME280;19508;42.578;23.416;2022-07-23T02:37:14;93991.09;;;20.05;54.31
33151;BME280;19508;42.578;23.416;2022-07-23T02:39:40;93999.94;;;20.02;53.96
33151;BME280;19508;42.578;23.416;2022-07-23T02:42:06;93990.63;;;20.03;53.35
33151;BME280;19508;42.578;23.416;2022-07-23T02:44:32;93997.06;;;20.07;53.82
33151;BME280;19508;42.578;23.416;2022-07-23T02:46:59;94004.38;;;19.97;53.28
33151;BME280;19508;42.578;23.416;2022-07-23T02:49:24;93999.72;;;19.98;53.44
33151;BME280;19508;42.578;23.416;2022-07-23T02:51:50;93999.41;;;19.99;53.50
33151;BME280;19508;42.578;23.416;2022-07-23T02:54:16;94000.75;;;19.88;54.52
33151;BME280;19508;42.578;23.416;2022-07-23T02:56:42;94009.09;;;19.83;53.94
33151;BME280;19508;42.578;23.416;2022-07-23T02:59:07;94008.28;;;19.83;53.56
33151;BME280;19508;42.578;23.416;2022-07-23T03:01:34;94008.47;;;19.86;54.06
33151;BME280;19508;42.578;23.416;2022-07-23T03:04:00;94005.03;;;19.81;54.31
33151;BME280;19508;42.578;23.416;2022-07-23T03:06:26;94011.19;;;19.86;54.20
33151;BME280;19508;42.578;23.416;2022-07-23T03:08:51;94004.44;;;19.84;53.87
33151;BME280;19508;42.578;23.416;2022-07-23T03:11:17;94017.88;;;19.80;53.62
33151;BME280;19508;42.578;23.416;2022-07-23T03:13:44;94009.28;;;19.73;53.77
33151;BME280;19508;42.578;23.416;2022-07-23T03:16:09;94008.69;;;19.62;54.75
33151;BME280;19508;42.578;23.416;2022-07-23T03:18:35;94014.56;;;19.69;55.01
33151;BME280;19508;42.578;23.416;2022-07-23T03:21:01;94011.31;;;19.67;54.64
33151;BME280;19508;42.578;23.416;2022-07-23T03:23:27;94020.91;;;19.65;54.85
33151;BME280;19508;42.578;23.416;2022-07-23T03:25:52;94015.25;;;19.75;54.73
33151;BME280;19508;42.578;23.416;2022-07-23T03:28:18;94022.22;;;19.81;55.01
33151;BME280;19508;42.578;23.416;2022-07-23T03:30:45;94023.84;;;19.82;55.16
33151;BME280;19508;42.578;23.416;2022-07-23T03:33:19;94014.66;;;19.78;55.01
33151;BME280;19508;42.578;23.416;2022-07-23T03:35:45;94013.44;;;19.70;55.02
33151;BME280;19508;42.578;23.416;2022-07-23T03:38:11;94023.34;;;19.80;55.38
33151;BME280;19508;42.578;23.416;2022-07-23T03:40:37;94022.63;;;19.88;55.43
33151;BME280;19508;42.578;23.416;2022-07-23T03:43:02;94017.16;;;19.88;55.64
33151;BME280;19508;42.578;23.416;2022-07-23T03:45:28;94024.75;;;19.91;55.44
33151;BME280;19508;42.578;23.416;2022-07-23T03:47:54;94018.34;;;19.96;55.26
33151;BME280;19508;42.578;23.416;2022-07-23T03:50:20;94019.56;;;19.90;55.40
33151;BME280;19508;42.578;23.416;2022-07-23T03:52:46;94017.16;;;19.88;55.50
33151;BME280;19508;42.578;23.416;2022-07-23T03:55:14;94022.53;;;19.93;55.13
33151;BME280;19508;42.578;23.416;2022-07-23T03:57:40;94028.88;;;19.89;55.13
33151;BME280;19508;42.578;23.416;2022-07-23T04:00:07;94017.78;;;19.71;55.94
33151;BME280;19508;42.578;23.416;2022-07-23T04:02:36;94024.94;;;19.81;55.49
33151;BME280;19508;42.578;23.416;2022-07-23T04:05:02;94026.66;;;19.91;55.23
33151;BME280;19508;42.578;23.416;2022-07-23T04:07:28;94026.94;;;20.03;55.15
33151;BME280;19508;42.578;23.416;2022-07-23T04:09:54;94026.63;;;20.18;54.82
33151;BME280;19508;42.578;23.416;2022-07-23T04:12:20;94025.06;;;20.26;54.17
33151;BME280;19508;42.578;23.416;2022-07-23T04:14:47;94021.78;;;20.38;53.89
33151;BME280;19508;42.578;23.416;2022-07-23T04:17:13;94019.78;;;20.43;53.59
33151;BME280;19508;42.578;23.416;2022-07-23T04:19:38;94021.78;;;20.51;53.02
33151;BME280;19508;42.578;23.416;2022-07-23T04:22:10;94012.13;;;20.54;53.80
33151;BME280;19508;42.578;23.416;2022-07-23T04:24:37;94026.50;;;20.60;54.15
33151;BME280;19508;42.578;23.416;2022-07-23T04:27:03;94014.72;;;20.59;54.43
33151;BME280;19508;42.578;23.416;2022-07-23T04:43:15;94030.34;;;21.83;52.51
33151;BME280;19508;42.578;23.416;2022-07-23T04:45:41;94036.47;;;21.80;53.38
33151;BME280;19508;42.578;23.416;2022-07-23T04:48:06;94030.97;;;21.80;53.21
33151;BME280;19508;42.578;23.416;2022-07-23T04:50:31;94038.56;;;21.83;53.70
33151;BME280;19508;42.578;23.416;2022-07-23T04:52:57;94035.34;;;21.89;53.66
33151;BME280;19508;42.578;23.416;2022-07-23T04:55:22;94034.03;;;21.87;53.88
33151;BME280;19508;42.578;23.416;2022-07-23T04:57:48;94040.19;;;21.92;54.42
33151;BME280;19508;42.578;23.416;2022-07-23T05:00:13;94045.53;;;21.98;53.96
33151;BME280;19508;42.578;23.416;2022-07-23T05:02:39;94039.72;;;21.99;53.83
33151;BME280;19508;42.578;23.416;2022-07-23T05:05:05;94033.81;;;22.14;53.90
33151;BME280;19508;42.578;23.416;2022-07-23T05:07:30;94044.50;;;22.33;53.08
33151;BME280;19508;42.578;23.416;2022-07-23T05:09:56;94035.94;;;22.52;53.18
33151;BME280;19508;42.578;23.416;2022-07-23T05:12:21;94029.50;;;22.65;53.20
33151;BME280;19508;42.578;23.416;2022-07-23T05:14:47;94040.94;;;22.67;52.26
33151;BME280;19508;42.578;23.416;2022-07-23T05:17:12;94044.00;;;22.83;52.86
33151;BME280;19508;42.578;23.416;2022-07-23T05:19:37;94042.06;;;23.01;53.37
33151;BME280;19508;42.578;23.416;2022-07-23T05:22:03;94042.63;;;23.32;52.33
33151;BME280;19508;42.578;23.416;2022-07-23T05:24:28;94044.06;;;23.39;51.06
33151;BME280;19508;42.578;23.416;2022-07-23T05:26:54;94045.81;;;23.52;51.37
33151;BME280;19508;42.578;23.416;2022-07-23T05:29:19;94045.47;;;23.62;50.25
33151;BME280;19508;42.578;23.416;2022-07-23T05:31:45;94042.44;;;23.46;50.37
33151;BME280;19508;42.578;23.416;2022-07-23T05:34:10;94044.81;;;23.65;50.73
33151;BME280;19508;42.578;23.416;2022-07-23T05:36:36;94050.81;;;23.97;50.01
33151;BME280;19508;42.578;23.416;2022-07-23T05:39:02;94049.50;;;24.03;50.26
33151;BME280;19508;42.578;23.416;2022-07-23T05:41:27;94055.16;;;24.27;50.47
33151;BME280;19508;42.578;23.416;2022-07-23T05:43:53;94056.34;;;24.47;49.63
33151;BME280;19508;42.578;23.416;2022-07-23T05:46:18;94048.09;;;24.68;50.72
33151;BME280;19508;42.578;23.416;2022-07-23T05:48:44;94053.44;;;24.85;49.84
33151;BME280;19508;42.578;23.416;2022-07-23T05:51:11;94048.31;;;25.17;49.65
33151;BME280;19508;42.578;23.416;2022-07-23T05:53:36;94045.47;;;25.25;48.80
33151;BME280;19508;42.578;23.416;2022-07-23T05:56:03;94037.38;;;25.41;48.77
33151;BME280;19508;42.578;23.416;2022-07-23T05:58:29;94047.91;;;25.72;48.77
33151;BME280;19508;42.578;23.416;2022-07-23T06:00:54;94051.25;;;26.02;47.24
33151;BME280;19508;42.578;23.416;2022-07-23T06:03:20;94052.16;;;26.19;46.76
33151;BME280;19508;42.578;23.416;2022-07-23T06:05:45;94053.56;;;26.49;46.91
33151;BME280;19508;42.578;23.416;2022-07-23T06:08:11;94051.78;;;26.69;46.35
33151;BME280;19508;42.578;23.416;2022-07-23T06:10:36;94050.63;;;27.10;45.49
33151;BME280;19508;42.578;23.416;2022-07-23T06:13:02;94039.25;;;27.27;45.23
33151;BME280;19508;42.578;23.416;2022-07-23T06:15:28;94044.56;;;27.64;45.27
33151;BME280;19508;42.578;23.416;2022-07-23T06:17:53;94039.41;;;27.94;44.05
33151;BME280;19508;42.578;23.416;2022-07-23T06:20:19;94040.94;;;28.23;44.54
33151;BME280;19508;42.578;23.416;2022-07-23T06:22:44;94029.94;;;28.43;42.92
33151;BME280;19508;42.578;23.416;2022-07-23T06:25:09;94038.44;;;28.69;43.30
33151;BME280;19508;42.578;23.416;2022-07-23T06:27:35;94037.63;;;28.88;44.39
33151;BME280;19508;42.578;23.416;2022-07-23T06:30:00;94030.03;;;29.01;42.15
33151;BME280;19508;42.578;23.416;2022-07-23T06:32:26;94030.81;;;29.20;42.59
33151;BME280;19508;42.578;23.416;2022-07-23T06:34:51;94025.53;;;29.54;40.82
33151;BME280;19508;42.578;23.416;2022-07-23T06:37:17;94030.31;;;29.76;41.24
33151;BME280;19508;42.578;23.416;2022-07-23T06:39:42;94027.75;;;30.10;40.95
33151;BME280;19508;42.578;23.416;2022-07-23T06:42:08;94034.53;;;30.39;40.00
33151;BME280;19508;42.578;23.416;2022-07-23T06:44:33;94033.31;;;30.37;39.08
33151;BME280;19508;42.578;23.416;2022-07-23T06:46:59;94032.50;;;30.63;37.15
33151;BME280;19508;42.578;23.416;2022-07-23T06:49:24;94034.22;;;30.71;38.62
33151;BME280;19508;42.578;23.416;2022-07-23T06:51:49;94039.31;;;30.65;38.84
33151;BME280;19508;42.578;23.416;2022-07-23T06:54:15;94027.69;;;30.86;37.48
33151;BME280;19508;42.578;23.416;2022-07-23T06:56:40;94032.69;;;31.03;37.06
33151;BME280;19508;42.578;23.416;2022-07-23T06:59:06;94028.81;;;31.11;36.80
33151;BME280;19508;42.578;23.416;2022-07-23T07:01:32;94029.25;;;31.47;34.68
33151;BME280;19508;42.578;23.416;2022-07-23T07:03:57;94022.28;;;31.67;33.92
33151;BME280;19508;42.578;23.416;2022-07-23T07:06:22;94019.97;;;31.73;34.01
33151;BME280;19508;42.578;23.416;2022-07-23T07:08:48;94029.78;;;31.97;34.04
33151;BME280;19508;42.578;23.416;2022-07-23T07:11:13;94025.91;;;32.12;34.77
33151;BME280;19508;42.578;23.416;2022-07-23T07:13:39;94012.50;;;32.25;35.54
33151;BME280;19508;42.578;23.416;2022-07-23T07:16:04;94014.25;;;32.44;33.95
33151;BME280;19508;42.578;23.416;2022-07-23T07:18:30;94021.53;;;32.59;33.34
33151;BME280;19508;42.578;23.416;2022-07-23T07:20:57;94022.31;;;32.60;31.58
33151;BME280;19508;42.578;23.416;2022-07-23T07:23:22;94013.00;;;32.93;31.01
33151;BME280;19508;42.578;23.416;2022-07-23T07:25:48;94001.44;;;32.94;30.57
33151;BME280;19508;42.578;23.416;2022-07-23T07:28:13;94010.69;;;33.09;30.44
33151;BME280;19508;42.578;23.416;2022-07-23T07:30:39;94006.41;;;33.36;29.33
33151;BME280;19508;42.578;23.416;2022-07-23T07:33:04;93998.78;;;33.26;30.50
33151;BME280;19508;42.578;23.416;2022-07-23T07:35:30;93998.41;;;33.35;31.24
33151;BME280;19508;42.578;23.416;2022-07-23T07:37:57;93996.03;;;33.41;33.38
33151;BME280;19508;42.578;23.416;2022-07-23T07:40:23;93994.91;;;33.52;31.96
33151;BME280;19508;42.578;23.416;2022-07-23T07:42:50;93988.56;;;33.84;30.91
33151;BME280;19508;42.578;23.416;2022-07-23T07:45:16;93994.16;;;33.77;30.65
33151;BME280;19508;42.578;23.416;2022-07-23T07:47:42;93999.38;;;34.07;27.96
33151;BME280;19508;42.578;23.416;2022-07-23T07:50:08;93996.59;;;34.07;26.73
33151;BME280;19508;42.578;23.416;2022-07-23T07:52:35;93991.78;;;33.89;25.43
33151;BME280;19508;42.578;23.416;2022-07-23T07:55:04;93995.00;;;33.99;27.34
33151;BME280;19508;42.578;23.416;2022-07-23T07:57:30;93995.78;;;33.96;25.34
33151;BME280;19508;42.578;23.416;2022-07-23T07:59:55;93997.75;;;33.84;28.79
33151;BME280;19508;42.578;23.416;2022-07-23T08:02:21;93991.81;;;34.04;26.49
33151;BME280;19508;42.578;23.416;2022-07-23T08:04:46;93989.41;;;34.16;26.12
33151;BME280;19508;42.578;23.416;2022-07-23T08:07:12;93995.41;;;34.04;27.93
33151;BME280;19508;42.578;23.416;2022-07-23T08:09:38;93992.59;;;34.01;27.91
33151;BME280;19508;42.578;23.416;2022-07-23T08:12:03;93987.00;;;34.22;26.29
33151;BME280;19508;42.578;23.416;2022-07-23T08:14:29;93987.41;;;34.42;25.91
33151;BME280;19508;42.578;23.416;2022-07-23T08:16:54;93982.22;;;34.47;27.16
33151;BME280;19508;42.578;23.416;2022-07-23T08:19:20;93978.97;;;34.67;26.12
33151;BME280;19508;42.578;23.416;2022-07-23T08:21:45;93971.78;;;34.69;26.88
33151;BME280;19508;42.578;23.416;2022-07-23T08:24:10;93982.22;;;34.44;25.00
33151;BME280;19508;42.578;23.416;2022-07-23T08:26:36;93975.00;;;34.57;27.21
33151;BME280;19508;42.578;23.416;2022-07-23T08:29:01;93978.22;;;34.31;28.04
33151;BME280;19508;42.578;23.416;2022-07-23T08:31:27;93972.63;;;34.63;29.37
33151;BME280;19508;42.578;23.416;2022-07-23T08:33:52;93983.00;;;34.37;28.65
33151;BME280;19508;42.578;23.416;2022-07-23T08:36:18;93982.94;;;34.84;29.48
33151;BME280;19508;42.578;23.416;2022-07-23T08:38:43;93973.72;;;34.94;26.44
33151;BME280;19508;42.578;23.416;2022-07-23T08:41:09;93970.97;;;34.80;27.71
33151;BME280;19508;42.578;23.416;2022-07-23T08:43:34;93977.25;;;35.16;25.97
33151;BME280;19508;42.578;23.416;2022-07-23T08:46:02;93978.72;;;35.49;26.89
33151;BME280;19508;42.578;23.416;2022-07-23T08:48:32;93977.75;;;35.77;25.35
33151;BME280;19508;42.578;23.416;2022-07-23T08:51:00;93979.75;;;35.76;24.69
33151;BME280;19508;42.578;23.416;2022-07-23T08:53:28;93974.47;;;35.85;25.17
33151;BME280;19508;42.578;23.416;2022-07-23T08:55:59;93969.69;;;35.90;27.05
33151;BME280;19508;42.578;23.416;2022-07-23T08:58:25;93967.41;;;36.26;25.71
33151;BME280;19508;42.578;23.416;2022-07-23T09:00:50;93964.66;;;36.19;26.23
33151;BME280;19508;42.578;23.416;2022-07-23T09:03:27;93969.38;;;36.29;23.81
33151;BME280;19508;42.578;23.416;2022-07-23T09:05:54;93969.34;;;36.32;23.52
33151;BME280;19508;42.578;23.416;2022-07-23T09:08:25;93966.59;;;36.25;24.58
33151;BME280;19508;42.578;23.416;2022-07-23T09:11:02;93968.16;;;36.30;24.25
33151;BME280;19508;42.578;23.416;2022-07-23T09:18:51;93957.88;;;36.12;25.25
33151;BME280;19508;42.578;23.416;2022-07-23T09:21:28;93963.91;;;36.11;22.73
33151;BME280;19508;42.578;23.416;2022-07-23T09:26:33;93963.75;;;36.29;21.48
33151;BME280;19508;42.578;23.416;2022-07-23T09:29:04;93957.19;;;36.50;21.88
33151;BME280;19508;42.578;23.416;2022-07-23T09:34:21;93956.72;;;36.58;20.92
33151;BME280;19508;42.578;23.416;2022-07-23T09:36:47;93952.06;;;36.79;21.54
33151;BME280;19508;42.578;23.416;2022-07-23T09:39:15;93949.53;;;36.91;20.71
33151;BME280;19508;42.578;23.416;2022-07-23T09:41:44;93952.41;;;36.88;21.71
33151;BME280;19508;42.578;23.416;2022-07-23T09:44:15;93949.09;;;36.55;22.89
33151;BME280;19508;42.578;23.416;2022-07-23T09:46:42;93950.19;;;36.68;23.59
33151;BME280;19508;42.578;23.416;2022-07-23T09:49:19;93944.03;;;36.81;24.07
33151;BME280;19508;42.578;23.416;2022-07-23T09:54:23;93940.31;;;36.91;21.49
33151;BME280;19508;42.578;23.416;2022-07-23T09:56:51;93935.97;;;36.83;21.76
33151;BME280;19508;42.578;23.416;2022-07-23T09:59:18;93940.81;;;36.86;21.27
33151;BME280;19508;42.578;23.416;2022-07-23T10:01:47;93931.81;;;37.02;21.01
33151;BME280;19508;42.578;23.416;2022-07-23T10:04:13;93936.22;;;36.99;22.50
33151;BME280;19508;42.578;23.416;2022-07-23T10:06:39;93923.69;;;37.07;23.94
33151;BME280;19508;42.578;23.416;2022-07-23T10:09:08;93924.00;;;37.47;25.47
33151;BME280;19508;42.578;23.416;2022-07-23T10:11:37;93931.63;;;37.46;22.54
33151;BME280;19508;42.578;23.416;2022-07-23T10:14:03;93927.06;;;37.56;22.08
33151;BME280;19508;42.578;23.416;2022-07-23T10:16:30;93927.94;;;37.53;21.21
33151;BME280;19508;42.578;23.416;2022-07-23T10:18:55;93921.56;;;37.49;22.52
33151;BME280;19508;42.578;23.416;2022-07-23T10:27:02;93919.53;;;37.76;20.00
33151;BME280;19508;42.578;23.416;2022-07-23T10:38:35;93906.28;;;38.51;18.99
33151;BME280;19508;42.578;23.416;2022-07-23T10:41:04;93896.84;;;38.61;22.66
33151;BME280;19508;42.578;23.416;2022-07-23T10:43:30;93900.19;;;38.32;18.97
33151;BME280;19508;42.578;23.416;2022-07-23T10:46:25;93895.72;;;38.35;18.72
33151;BME280;19508;42.578;23.416;2022-07-23T10:49:26;93893.78;;;38.32;18.43
33151;BME280;19508;42.578;23.416;2022-07-23T10:54:39;93885.97;;;38.63;19.64
33151;BME280;19508;42.578;23.416;2022-07-23T10:57:07;93878.00;;;38.81;18.53
33151;BME280;19508;42.578;23.416;2022-07-23T11:02:29;93865.72;;;38.28;18.12
33151;BME280;19508;42.578;23.416;2022-07-23T11:05:00;93873.50;;;38.64;17.74
33151;BME280;19508;42.578;23.416;2022-07-23T11:07:26;93866.03;;;38.54;18.06
33151;BME280;19508;42.578;23.416;2022-07-23T11:09:53;93858.94;;;38.69;17.25
33151;BME280;19508;42.578;23.416;2022-07-23T11:15:07;93860.94;;;38.88;18.58
33151;BME280;19508;42.578;23.416;2022-07-23T11:17:39;93857.84;;;39.03;16.07
33151;BME280;19508;42.578;23.416;2022-07-23T11:20:23;93862.16;;;39.27;17.11
33151;BME280;19508;42.578;23.416;2022-07-23T11:22:56;93856.53;;;39.27;18.86
33151;BME280;19508;42.578;23.416;2022-07-23T11:27:50;93842.78;;;39.82;18.66
33151;BME280;19508;42.578;23.416;2022-07-23T11:35:36;93826.88;;;39.59;16.95
33151;BME280;19508;42.578;23.416;2022-07-23T11:38:16;93825.19;;;39.78;16.73
33151;BME280;19508;42.578;23.416;2022-07-23T11:40:48;93830.72;;;39.65;18.09
33151;BME280;19508;42.578;23.416;2022-07-23T11:43:14;93831.75;;;39.55;16.88
33151;BME280;19508;42.578;23.416;2022-07-23T11:45:41;93824.72;;;39.46;17.63
33151;BME280;19508;42.578;23.416;2022-07-23T11:48:09;93821.88;;;39.66;16.29
33151;BME280;19508;42.578;23.416;2022-07-23T11:50:36;93816.44;;;39.56;16.66
33151;BME280;19508;42.578;23.416;2022-07-23T11:53:02;93821.25;;;39.39;15.58
33151;BME280;19508;42.578;23.416;2022-07-23T11:55:28;93817.31;;;39.53;17.14
33151;BME280;19508;42.578;23.416;2022-07-23T11:57:54;93822.66;;;39.67;14.41
33151;BME280;19508;42.578;23.416;2022-07-23T12:00:24;93819.13;;;39.79;15.05
33151;BME280;19508;42.578;23.416;2022-07-23T12:03:02;93812.47;;;39.53;14.51
33151;BME280;19508;42.578;23.416;2022-07-23T12:05:33;93807.78;;;39.30;15.57
33151;BME280;19508;42.578;23.416;2022-07-23T12:07:59;93811.72;;;39.69;16.24
33151;BME280;19508;42.578;23.416;2022-07-23T12:10:39;93810.59;;;39.66;17.72
33151;BME280;19508;42.578;23.416;2022-07-23T12:13:15;93811.59;;;39.40;16.87
33151;BME280;19508;42.578;23.416;2022-07-23T12:15:44;93812.31;;;39.44;16.06
33151;BME280;19508;42.578;23.416;2022-07-23T12:18:12;93799.00;;;39.44;18.99
33151;BME280;19508;42.578;23.416;2022-07-23T12:20:43;93805.69;;;39.34;15.38
33151;BME280;19508;42.578;23.416;2022-07-23T12:23:10;93798.16;;;39.64;17.70
33151;BME280;19508;42.578;23.416;2022-07-23T12:25:37;93789.31;;;39.45;14.50
33151;BME280;19508;42.578;23.416;2022-07-23T12:28:12;93791.88;;;39.56;14.81
33151;BME280;19508;42.578;23.416;2022-07-23T12:30:47;93789.06;;;39.56;14.72
33151;BME280;19508;42.578;23.416;2022-07-23T12:33:25;93789.50;;;39.38;15.76
33151;BME280;19508;42.578;23.416;2022-07-23T12:35:52;93781.03;;;39.38;14.27
33151;BME280;19508;42.578;23.416;2022-07-23T12:38:20;93784.47;;;39.30;14.01
33151;BME280;19508;42.578;23.416;2022-07-23T12:40:47;93782.03;;;39.12;14.92
33151;BME280;19508;42.578;23.416;2022-07-23T12:43:40;93781.34;;;38.72;14.53
33151;BME280;19508;42.578;23.416;2022-07-23T12:48:36;93768.66;;;39.00;15.39
33151;BME280;19508;42.578;23.416;2022-07-23T12:53:32;93769.75;;;38.86;14.45
33151;BME280;19508;42.578;23.416;2022-07-23T12:56:10;93775.84;;;38.64;13.91
33151;BME280;19508;42.578;23.416;2022-07-23T12:59:04;93765.66;;;38.51;15.69
33151;BME280;19508;42.578;23.416;2022-07-23T13:01:39;93764.00;;;38.33;14.92
33151;BME280;19508;42.578;23.416;2022-07-23T13:04:09;93771.78;;;38.26;15.04
33151;BME280;19508;42.578;23.416;2022-07-23T13:06:45;93762.00;;;38.74;15.67
33151;BME280;19508;42.578;23.416;2022-07-23T13:09:13;93761.00;;;39.00;15.03
33151;BME280;19508;42.578;23.416;2022-07-23T13:11:39;93761.44;;;38.99;15.60
33151;BME280;19508;42.578;23.416;2022-07-23T13:14:05;93756.59;;;39.35;13.34
33151;BME280;19508;42.578;23.416;2022-07-23T13:16:31;93756.25;;;39.33;13.73
33151;BME280;19508;42.578;23.416;2022-07-23T13:18:58;93751.56;;;39.27;15.07
33151;BME280;19508;42.578;23.416;2022-07-23T13:21:24;93759.22;;;39.42;13.90
33151;BME280;19508;42.578;23.416;2022-07-23T13:23:49;93761.75;;;39.20;13.84
33151;BME280;19508;42.578;23.416;2022-07-23T13:26:27;93761.06;;;38.80;14.24
33151;BME280;19508;42.578;23.416;2022-07-23T13:28:53;93754.97;;;38.22;15.18
33151;BME280;19508;42.578;23.416;2022-07-23T13:31:19;93758.81;;;38.12;15.42
33151;BME280;19508;42.578;23.416;2022-07-23T13:33:45;93755.72;;;37.83;14.23
33151;BME280;19508;42.578;23.416;2022-07-23T13:36:11;93757.44;;;37.53;14.82
33151;BME280;19508;42.578;23.416;2022-07-23T13:38:36;93754.16;;;37.32;14.73
33151;BME280;19508;42.578;23.416;2022-07-23T13:41:02;93754.97;;;37.05;14.37
33151;BME280;19508;42.578;23.416;2022-07-23T13:43:28;93757.59;;;36.89;14.83
33151;BME280;19508;42.578;23.416;2022-07-23T13:45:54;93751.34;;;36.78;15.74
33151;BME280;19508;42.578;23.416;2022-07-23T13:48:19;93750.00;;;36.25;15.58
33151;BME280;19508;42.578;23.416;2022-07-23T13:50:46;93749.06;;;36.35;14.38
33151;BME280;19508;42.578;23.416;2022-07-23T13:53:15;93750.59;;;36.05;15.42